x

Southwest Hawaii - 215nm Ssw Of Hilo, Hi (51002) Wave Buoy

10:50am - Mon 25th Jul 2016 All times are HST. -10 hours from GMT.

  • Sig Wave height 5.9ft
  • Peak Period 8s
  • Average Period 8s
  • Wind
    9mph, 11mph gusts
  • Sea Temp 82°f
  • Air Temp 81°f
  • Sea Pressure 1014.3mb
  • Southwest Hawaii - 215nm Ssw Of Hilo, Hi
  • Southwest Hawaii - 215nm Ssw Of Hilo, Hi

More Historic Weather Station data

Upgrade to MSW Pro to gain access to the past 30 days of data for over 8000 Wavebouys and Weather Stations around the globe.

Join Pro

Comparision Forecast

View Surf forecast
   
Mon 07/25 10:50am 6ft 8s 8s 9 11 mph 1014.3mb 82f 81f
9:50am 5.5ft 8s 7s 9 11 mph 1014.4mb 82f 81f
8:50am 6ft 10s 7s 7 11 mph 1013.8mb 82f 81f
7:50am 6ft 8s 7s 9 11 mph 1013.3mb 82f 81f
6:50am 6ft 8s 7s 7 11 mph 1012.9mb 82f 80f
5:50am 6ft 9s 7s 9 11 mph 1012.7mb 82f 80f
4:50am 6ft 8s 7s 9 11 mph 1012.8mb 82f 80f
3:50am 6ft 8s 7s 9 13 mph 1012.7mb 82f 80f
2:50am 6ft 8s 7s 9 11 mph 1012.9mb 82f 80f
1:50am 6ft 8s 7s 9 11 mph 1013.6mb 82f 80f
12:50am 6ft 8s 7s 11
mph
1014.1mb 82f 81f
Sun 07/24 11:50pm 6.5ft 9s 7s 11 13 mph 1014.5mb 82f 81f
10:50pm 7ft 8s 7s 11 13 mph 1014.7mb 82f 81f
9:50pm 6ft 8s 7s 13 16 mph 1014mb 82f 81f
8:50pm 6ft 9s 7s 13 18 mph 1013.5mb 82f 80f
7:50pm 6ft 9s 7s 13 16 mph 1013mb 82f 81f
6:50pm 6ft 11s 7s 7
mph
1012.5mb 83f 82f
5:50pm 6.5ft 9s 7s 9 11 mph 1012.1mb 83f 81f
4:50pm 6.5ft 8s 7s 9 11 mph 1012.1mb 83f 81f
3:50pm 7ft 8s 7s 13 16 mph 1012.2mb 83f 81f
2:50pm 6ft 9s 7s 11 13 mph 1012.4mb 83f 81f
1:50pm 6.5ft 8s 7s 11 16 mph 1013mb 82f 80f
12:50pm 7ft 11s 7s 11 13 mph 1013.6mb 82f 80f
11:50am 7.5ft 11s 8s 11 13 mph 1014.2mb 82f 81f
10:50am 7.5ft 9s 7s 11 13 mph 1014.2mb 82f 81f
9:50am 8ft 10s 8s 13 16 mph 1014.3mb 82f 81f
8:50am 7ft 9s 7s 11 13 mph 1014.1mb 82f 81f
7:50am 7.5ft 9s 8s 11 13 mph 1013.9mb 82f 81f
6:50am 7ft 9s 7s 13 16 mph 1013.4mb 82f 80f
5:50am 8ft 9s 7s 13 16 mph 1013mb 82f 80f
4:50am 8ft 10s 8s 13 16 mph 1012.8mb 82f 80f
3:50am 7.5ft 11s 7s 13 16 mph 1012.8mb 82f 80f
2:50am 8ft 10s 7s 13 16 mph 1013.3mb 82f 80f
1:50am 8ft 9s 7s 13 16 mph 1013.6mb 82f 80f
12:50am 8.5ft 10s 8s 16 20 mph 1014.1mb 82f 81f
Sat 07/23 11:50pm 8ft 12s 7s 16 18 mph 1014.5mb 82f 81f
10:50pm 10ft 11s 8s 16 18 mph 1014.3mb 82f 81f
9:50pm 8.5ft 13s 8s 16 18 mph 1013.9mb 82f 81f
8:50pm 9.5ft 10s 8s 16 18 mph 1013.4mb 82f 81f
7:50pm 8.5ft 10s 7s 16 18 mph 1013.1mb 82f 81f
6:50pm 8.5ft 13s 8s 16 20 mph 1012.7mb 82f 82f
5:50pm 8.5ft 12s 7s 16 18 mph 1012.4mb 82f 81f
4:50pm 8.5ft 9s 7s 16 18 mph 1012.4mb 82f 82f
3:50pm 8ft 9s 7s 13 16 mph 1012.7mb 82f 82f
2:50pm 9ft 9s 7s 13 16 mph 1013.1mb 82f 82f
1:50pm 9ft 10s 8s 13 16 mph 1013.6mb 82f 82f
12:50pm 8ft 9s 7s 13 18 mph 1013.9mb 82f 82f
11:50am 9ft 10s 7s 16 18 mph 1014mb 82f 81f
10:50am 8.5ft 10s 7s 16 20 mph 1014mb 82f 81f
9:50am 9ft 10s 8s 16 18 mph 1013.9mb 82f 81f
8:50am 8ft 10s 7s 16 18 mph 1013.4mb 82f 82f
7:50am 7.5ft 10s 7s 16 18 mph 1013.2mb 82f 81f
6:50am 7ft 10s 7s 16 20 mph 1012.5mb 82f 81f
3:50am 7ft 10s 7s 18 20 mph 1012mb 82f 81f
2:50am 7ft 8s 7s 18 20 mph 1012.3mb 82f 81f
1:50am 7ft 9s 7s 16 20 mph 1012.9mb 82f 81f
12:50am 7.5ft 9s 7s 16 18 mph 1013.5mb 82f 81f
Fri 07/22 11:50pm 8ft 9s 7s 16 18 mph 1013.9mb 82f 81f
10:50pm 7.5ft 9s 7s 18 20 mph 1013.8mb 82f 81f
9:50pm 7ft 9s 7s 18 20 mph 1013.3mb 82f 81f
8:50pm 7ft 10s 7s 16 18 mph 1013.1mb 82f 81f
7:50pm 7ft 8s 7s 16 18 mph 1012.8mb 82f 81f
6:50pm 7ft 10s 7s 13 18 mph 1012.2mb 82f 82f
5:50pm 7ft 8s 7s 16 18 mph 1012.2mb 82f 82f
4:50pm 7ft 8s 7s 16 18 mph 1012.5mb 82f 82f
3:50pm 8ft 9s 7s 18 20 mph 1012.5mb 82f 82f
2:50pm 8ft 8s 6s 18 20 mph 1012.9mb 82f 82f
1:50pm 8ft 9s 7s 18 20 mph 1013.4mb 82f 82f
12:50pm 9ft 10s 7s 18 25 mph 1013.8mb 82f 82f
11:50am 8ft 9s 6s 20 22 mph 1014mb 82f 82f
10:50am 8ft 9s 7s 20 22 mph 1014.2mb 82f 82f
9:50am 7.5ft 9s 6s 18 22 mph 1014.4mb 82f 82f
7:50am 7ft 10s 7s 16 18 mph 1014.3mb 82f 80f
6:50am 6.5ft 10s 7s 20 25 mph 1013.8mb 82f 79f
5:50am 7ft 10s 7s 20 25 mph 1013.6mb 82f 79f
4:50am 7ft 10s 7s 16 20 mph 1013.5mb 82f 81f
3:50am 6.5ft 9s 7s 16 20 mph 1013.5mb 82f 81f
2:50am 6.5ft 10s 7s 16 18 mph 1013.7mb 82f 81f
1:50am 7ft 10s 7s 16 18 mph 1014.1mb 82f 81f
12:50am 6ft 11s 7s 16 18 mph 1014.5mb 82f 81f
Thu 07/21 11:50pm  -   -   -  16 18 mph 1014.7mb 82f 81f